sensor_id;sensor_type;location;lat;lon;timestamp;temperature;humidity
24144;DHT22;12307;50.828;6.080;2022-12-17T00:01:43;18.90;50.20
24144;DHT22;12307;50.828;6.080;2022-12-17T00:04:27;18.90;50.20
24144;DHT22;12307;50.828;6.080;2022-12-17T00:07:11;18.90;50.20
24144;DHT22;12307;50.828;6.080;2022-12-17T00:09:57;18.90;50.20
24144;DHT22;12307;50.828;6.080;2022-12-17T00:12:41;18.90;50.20
24144;DHT22;12307;50.828;6.080;2022-12-17T00:15:25;18.90;50.20
24144;DHT22;12307;50.828;6.080;2022-12-17T00:18:09;18.90;50.10
24144;DHT22;12307;50.828;6.080;2022-12-17T00:20:54;18.90;50.20
24144;DHT22;12307;50.828;6.080;2022-12-17T00:23:39;18.90;50.20
24144;DHT22;12307;50.828;6.080;2022-12-17T00:26:24;18.90;50.10
24144;DHT22;12307;50.828;6.080;2022-12-17T00:29:09;18.90;50.20
24144;DHT22;12307;50.828;6.080;2022-12-17T00:31:53;18.90;50.10
24144;DHT22;12307;50.828;6.080;2022-12-17T00:34:37;18.80;50.10
24144;DHT22;12307;50.828;6.080;2022-12-17T00:37:26;18.90;50.10
24144;DHT22;12307;50.828;6.080;2022-12-17T00:40:10;18.90;50.10
24144;DHT22;12307;50.828;6.080;2022-12-17T00:43:01;18.90;49.90
24144;DHT22;12307;50.828;6.080;2022-12-17T00:45:45;18.80;50.00
24144;DHT22;12307;50.828;6.080;2022-12-17T00:48:30;18.90;50.00
24144;DHT22;12307;50.828;6.080;2022-12-17T00:51:14;18.90;49.90
24144;DHT22;12307;50.828;6.080;2022-12-17T00:53:58;18.90;50.00
24144;DHT22;12307;50.828;6.080;2022-12-17T00:56:42;18.80;49.90
24144;DHT22;12307;50.828;6.080;2022-12-17T00:59:28;18.90;50.00
24144;DHT22;12307;50.828;6.080;2022-12-17T01:02:12;18.90;49.90
24144;DHT22;12307;50.828;6.080;2022-12-17T01:04:56;18.90;49.90
24144;DHT22;12307;50.828;6.080;2022-12-17T01:07:40;18.90;49.80
24144;DHT22;12307;50.828;6.080;2022-12-17T01:10:24;18.90;49.80
24144;DHT22;12307;50.828;6.080;2022-12-17T01:13:11;18.80;49.80
24144;DHT22;12307;50.828;6.080;2022-12-17T01:16:01;18.90;49.90
24144;DHT22;12307;50.828;6.080;2022-12-17T01:18:45;18.80;49.80
24144;DHT22;12307;50.828;6.080;2022-12-17T01:21:29;18.80;49.80
24144;DHT22;12307;50.828;6.080;2022-12-17T01:24:13;18.80;49.80
24144;DHT22;12307;50.828;6.080;2022-12-17T01:26:57;18.80;49.90
24144;DHT22;12307;50.828;6.080;2022-12-17T01:29:41;18.90;49.90
24144;DHT22;12307;50.828;6.080;2022-12-17T01:32:27;18.80;49.80
24144;DHT22;12307;50.828;6.080;2022-12-17T01:35:11;18.80;49.80
24144;DHT22;12307;50.828;6.080;2022-12-17T01:37:56;18.80;49.80
24144;DHT22;12307;50.828;6.080;2022-12-17T01:40:40;18.80;49.80
24144;DHT22;12307;50.828;6.080;2022-12-17T01:43:32;18.80;49.80
24144;DHT22;12307;50.828;6.080;2022-12-17T01:46:16;18.80;49.70
24144;DHT22;12307;50.828;6.080;2022-12-17T01:49:02;18.80;50.30
24144;DHT22;12307;50.828;6.080;2022-12-17T01:51:47;18.80;49.60
24144;DHT22;12307;50.828;6.080;2022-12-17T01:54:33;18.80;49.60
24144;DHT22;12307;50.828;6.080;2022-12-17T01:57:17;18.80;49.60
24144;DHT22;12307;50.828;6.080;2022-12-17T02:00:04;18.80;49.70
24144;DHT22;12307;50.828;6.080;2022-12-17T02:02:49;18.80;49.60
24144;DHT22;12307;50.828;6.080;2022-12-17T02:05:47;18.80;49.60
24144;DHT22;12307;50.828;6.080;2022-12-17T02:08:40;18.80;49.60
24144;DHT22;12307;50.828;6.080;2022-12-17T02:11:36;18.80;49.60
24144;DHT22;12307;50.828;6.080;2022-12-17T02:14:27;18.80;49.50
24144;DHT22;12307;50.828;6.080;2022-12-17T02:17:17;18.80;49.60
24144;DHT22;12307;50.828;6.080;2022-12-17T02:20:17;18.80;49.60
24144;DHT22;12307;50.828;6.080;2022-12-17T02:23:12;18.80;49.50
24144;DHT22;12307;50.828;6.080;2022-12-17T02:26:05;18.80;49.50
24144;DHT22;12307;50.828;6.080;2022-12-17T02:28:54;18.80;49.80
24144;DHT22;12307;50.828;6.080;2022-12-17T02:31:40;18.80;49.80
24144;DHT22;12307;50.828;6.080;2022-12-17T02:34:26;18.80;49.50
24144;DHT22;12307;50.828;6.080;2022-12-17T02:37:11;18.80;49.50
24144;DHT22;12307;50.828;6.080;2022-12-17T02:39:55;18.80;49.50
24144;DHT22;12307;50.828;6.080;2022-12-17T02:42:39;18.80;49.50
24144;DHT22;12307;50.828;6.080;2022-12-17T02:45:25;18.80;49.50
24144;DHT22;12307;50.828;6.080;2022-12-17T02:48:11;18.80;49.40
24144;DHT22;12307;50.828;6.080;2022-12-17T02:50:56;18.80;49.40
24144;DHT22;12307;50.828;6.080;2022-12-17T02:53:42;18.80;49.40
24144;DHT22;12307;50.828;6.080;2022-12-17T02:56:26;18.80;49.40
24144;DHT22;12307;50.828;6.080;2022-12-17T02:59:10;18.80;49.40
24144;DHT22;12307;50.828;6.080;2022-12-17T03:01:56;18.80;49.40
24144;DHT22;12307;50.828;6.080;2022-12-17T03:04:40;18.80;49.40
24144;DHT22;12307;50.828;6.080;2022-12-17T03:07:24;18.80;49.30
24144;DHT22;12307;50.828;6.080;2022-12-17T03:10:11;18.80;49.40
24144;DHT22;12307;50.828;6.080;2022-12-17T03:12:55;18.80;49.30
24144;DHT22;12307;50.828;6.080;2022-12-17T03:15:39;18.80;49.30
24144;DHT22;12307;50.828;6.080;2022-12-17T03:18:25;18.80;49.30
24144;DHT22;12307;50.828;6.080;2022-12-17T03:21:10;18.80;49.30
24144;DHT22;12307;50.828;6.080;2022-12-17T03:23:54;18.80;49.30
24144;DHT22;12307;50.828;6.080;2022-12-17T03:26:38;18.80;49.30
24144;DHT22;12307;50.828;6.080;2022-12-17T03:29:22;18.80;49.30
24144;DHT22;12307;50.828;6.080;2022-12-17T03:32:06;18.70;49.10
24144;DHT22;12307;50.828;6.080;2022-12-17T03:34:51;18.80;49.10
24144;DHT22;12307;50.828;6.080;2022-12-17T03:37:36;18.80;49.20
24144;DHT22;12307;50.828;6.080;2022-12-17T03:40:20;18.80;49.20
24144;DHT22;12307;50.828;6.080;2022-12-17T03:43:05;18.80;49.20
24144;DHT22;12307;50.828;6.080;2022-12-17T03:45:51;18.80;49.80
24144;DHT22;12307;50.828;6.080;2022-12-17T03:48:36;18.80;49.20
24144;DHT22;12307;50.828;6.080;2022-12-17T03:51:21;18.70;49.10
24144;DHT22;12307;50.828;6.080;2022-12-17T03:54:06;18.80;49.10
24144;DHT22;12307;50.828;6.080;2022-12-17T03:56:50;18.70;49.10
24144;DHT22;12307;50.828;6.080;2022-12-17T03:59:34;18.70;49.00
24144;DHT22;12307;50.828;6.080;2022-12-17T04:02:18;18.70;49.10
24144;DHT22;12307;50.828;6.080;2022-12-17T04:05:03;18.80;49.10
24144;DHT22;12307;50.828;6.080;2022-12-17T04:07:48;18.70;49.10
24144;DHT22;12307;50.828;6.080;2022-12-17T04:10:33;18.70;49.10
24144;DHT22;12307;50.828;6.080;2022-12-17T04:13:17;18.70;49.10
24144;DHT22;12307;50.828;6.080;2022-12-17T04:16:01;18.70;49.10
24144;DHT22;12307;50.828;6.080;2022-12-17T04:18:45;18.70;49.00
24144;DHT22;12307;50.828;6.080;2022-12-17T04:21:29;18.70;49.00
24144;DHT22;12307;50.828;6.080;2022-12-17T04:24:15;18.70;49.00
24144;DHT22;12307;50.828;6.080;2022-12-17T04:26:59;18.80;49.00
24144;DHT22;12307;50.828;6.080;2022-12-17T04:29:43;18.70;49.00
24144;DHT22;12307;50.828;6.080;2022-12-17T04:32:27;18.70;49.00
24144;DHT22;12307;50.828;6.080;2022-12-17T04:35:11;18.70;49.00
24144;DHT22;12307;50.828;6.080;2022-12-17T04:37:55;18.80;49.00
24144;DHT22;12307;50.828;6.080;2022-12-17T04:40:41;18.70;48.90
24144;DHT22;12307;50.828;6.080;2022-12-17T04:43:25;18.70;48.90
24144;DHT22;12307;50.828;6.080;2022-12-17T04:46:09;18.70;48.90
24144;DHT22;12307;50.828;6.080;2022-12-17T04:48:53;18.70;49.00
24144;DHT22;12307;50.828;6.080;2022-12-17T04:51:37;18.70;48.90
24144;DHT22;12307;50.828;6.080;2022-12-17T04:54:22;18.70;49.00
24144;DHT22;12307;50.828;6.080;2022-12-17T04:57:07;18.70;48.90
24144;DHT22;12307;50.828;6.080;2022-12-17T04:59:51;18.70;48.90
24144;DHT22;12307;50.828;6.080;2022-12-17T05:02:35;18.70;48.90
24144;DHT22;12307;50.828;6.080;2022-12-17T05:05:19;18.70;48.90
24144;DHT22;12307;50.828;6.080;2022-12-17T05:08:04;18.70;48.90
24144;DHT22;12307;50.828;6.080;2022-12-17T05:10:48;18.70;48.90
24144;DHT22;12307;50.828;6.080;2022-12-17T05:13:33;18.70;48.80
24144;DHT22;12307;50.828;6.080;2022-12-17T05:16:18;18.70;48.80
24144;DHT22;12307;50.828;6.080;2022-12-17T05:19:02;18.70;48.80
24144;DHT22;12307;50.828;6.080;2022-12-17T05:21:46;18.70;48.80
24144;DHT22;12307;50.828;6.080;2022-12-17T05:24:30;18.70;48.80
24144;DHT22;12307;50.828;6.080;2022-12-17T05:27:14;18.70;48.80
24144;DHT22;12307;50.828;6.080;2022-12-17T05:29:59;18.70;48.80
24144;DHT22;12307;50.828;6.080;2022-12-17T05:32:44;18.70;48.80
24144;DHT22;12307;50.828;6.080;2022-12-17T05:35:36;18.70;48.80
24144;DHT22;12307;50.828;6.080;2022-12-17T05:38:20;18.70;48.80
24144;DHT22;12307;50.828;6.080;2022-12-17T05:41:04;18.70;48.70
24144;DHT22;12307;50.828;6.080;2022-12-17T05:43:48;18.70;48.80
24144;DHT22;12307;50.828;6.080;2022-12-17T05:46:34;18.70;48.80
24144;DHT22;12307;50.828;6.080;2022-12-17T05:49:18;18.70;48.70
24144;DHT22;12307;50.828;6.080;2022-12-17T05:52:02;18.70;48.70
24144;DHT22;12307;50.828;6.080;2022-12-17T05:54:46;18.70;48.80
24144;DHT22;12307;50.828;6.080;2022-12-17T05:57:30;18.70;48.80
24144;DHT22;12307;50.828;6.080;2022-12-17T06:00:15;18.70;48.80
24144;DHT22;12307;50.828;6.080;2022-12-17T06:03:01;18.70;48.70
24144;DHT22;12307;50.828;6.080;2022-12-17T06:05:46;18.70;48.70
24144;DHT22;12307;50.828;6.080;2022-12-17T06:08:31;18.70;48.70
24144;DHT22;12307;50.828;6.080;2022-12-17T06:11:15;18.70;48.60
24144;DHT22;12307;50.828;6.080;2022-12-17T06:13:59;18.70;48.60
24144;DHT22;12307;50.828;6.080;2022-12-17T06:16:43;18.70;48.60
24144;DHT22;12307;50.828;6.080;2022-12-17T06:19:28;18.70;48.60
24144;DHT22;12307;50.828;6.080;2022-12-17T06:22:12;18.70;48.60
24144;DHT22;12307;50.828;6.080;2022-12-17T06:24:56;18.70;48.60
24144;DHT22;12307;50.828;6.080;2022-12-17T06:27:41;18.70;48.60
24144;DHT22;12307;50.828;6.080;2022-12-17T06:30:25;18.70;48.80
24144;DHT22;12307;50.828;6.080;2022-12-17T06:33:10;18.70;48.60
24144;DHT22;12307;50.828;6.080;2022-12-17T06:35:57;18.70;48.50
24144;DHT22;12307;50.828;6.080;2022-12-17T06:38:41;18.70;48.60
24144;DHT22;12307;50.828;6.080;2022-12-17T06:41:26;18.70;48.60
24144;DHT22;12307;50.828;6.080;2022-12-17T06:44:10;18.70;48.50
24144;DHT22;12307;50.828;6.080;2022-12-17T06:46:54;18.70;48.60
24144;DHT22;12307;50.828;6.080;2022-12-17T06:49:38;18.70;48.50
24144;DHT22;12307;50.828;6.080;2022-12-17T06:52:23;18.70;48.50
24144;DHT22;12307;50.828;6.080;2022-12-17T06:55:08;18.70;48.50
24144;DHT22;12307;50.828;6.080;2022-12-17T06:57:56;18.70;48.50
24144;DHT22;12307;50.828;6.080;2022-12-17T07:00:40;18.70;48.60
24144;DHT22;12307;50.828;6.080;2022-12-17T07:03:25;18.70;48.50
24144;DHT22;12307;50.828;6.080;2022-12-17T07:06:08;18.70;48.50
24144;DHT22;12307;50.828;6.080;2022-12-17T07:08:54;18.70;48.50
24144;DHT22;12307;50.828;6.080;2022-12-17T07:11:39;18.60;48.40
24144;DHT22;12307;50.828;6.080;2022-12-17T07:14:23;18.70;48.40
24144;DHT22;12307;50.828;6.080;2022-12-17T07:17:07;18.60;48.40
24144;DHT22;12307;50.828;6.080;2022-12-17T07:19:51;18.70;48.40
24144;DHT22;12307;50.828;6.080;2022-12-17T07:22:35;18.70;48.40
24144;DHT22;12307;50.828;6.080;2022-12-17T07:25:20;18.70;48.40
24144;DHT22;12307;50.828;6.080;2022-12-17T07:28:04;18.70;48.40
24144;DHT22;12307;50.828;6.080;2022-12-17T07:30:48;18.70;48.30
24144;DHT22;12307;50.828;6.080;2022-12-17T07:33:32;18.60;48.30
24144;DHT22;12307;50.828;6.080;2022-12-17T07:36:16;18.60;48.30
24144;DHT22;12307;50.828;6.080;2022-12-17T07:39:01;18.70;48.30
24144;DHT22;12307;50.828;6.080;2022-12-17T07:41:46;18.60;48.40
24144;DHT22;12307;50.828;6.080;2022-12-17T07:44:30;18.70;48.30
24144;DHT22;12307;50.828;6.080;2022-12-17T07:47:14;18.70;48.30
24144;DHT22;12307;50.828;6.080;2022-12-17T07:49:58;18.60;48.30
24144;DHT22;12307;50.828;6.080;2022-12-17T07:52:42;18.70;48.20
24144;DHT22;12307;50.828;6.080;2022-12-17T07:55:26;18.70;48.30
24144;DHT22;12307;50.828;6.080;2022-12-17T07:58:12;18.60;48.20
24144;DHT22;12307;50.828;6.080;2022-12-17T08:00:58;18.60;48.30
24144;DHT22;12307;50.828;6.080;2022-12-17T08:03:43;18.60;48.30
24144;DHT22;12307;50.828;6.080;2022-12-17T08:06:27;18.60;48.20
24144;DHT22;12307;50.828;6.080;2022-12-17T08:09:12;18.60;48.30
24144;DHT22;12307;50.828;6.080;2022-12-17T08:11:56;18.60;48.20
24144;DHT22;12307;50.828;6.080;2022-12-17T08:14:41;18.60;48.10
24144;DHT22;12307;50.828;6.080;2022-12-17T08:17:25;18.60;48.10
24144;DHT22;12307;50.828;6.080;2022-12-17T08:20:10;18.60;48.10
24144;DHT22;12307;50.828;6.080;2022-12-17T08:23:00;18.70;48.20
24144;DHT22;12307;50.828;6.080;2022-12-17T08:25:44;18.70;48.10
24144;DHT22;12307;50.828;6.080;2022-12-17T08:28:29;18.60;48.00
24144;DHT22;12307;50.828;6.080;2022-12-17T08:31:14;18.70;48.10
24144;DHT22;12307;50.828;6.080;2022-12-17T08:33:59;18.70;48.10
24144;DHT22;12307;50.828;6.080;2022-12-17T08:36:43;18.70;48.10
24144;DHT22;12307;50.828;6.080;2022-12-17T08:39:27;18.70;48.10
24144;DHT22;12307;50.828;6.080;2022-12-17T08:42:11;18.70;48.10
24144;DHT22;12307;50.828;6.080;2022-12-17T08:44:55;18.70;48.00
24144;DHT22;12307;50.828;6.080;2022-12-17T08:47:41;18.70;48.10
24144;DHT22;12307;50.828;6.080;2022-12-17T08:50:25;18.70;48.00
24144;DHT22;12307;50.828;6.080;2022-12-17T08:53:09;18.70;48.00
24144;DHT22;12307;50.828;6.080;2022-12-17T08:55:53;18.70;47.90
24144;DHT22;12307;50.828;6.080;2022-12-17T08:58:37;18.70;47.90
24144;DHT22;12307;50.828;6.080;2022-12-17T09:01:21;18.70;47.90
24144;DHT22;12307;50.828;6.080;2022-12-17T09:04:06;18.70;47.90
24144;DHT22;12307;50.828;6.080;2022-12-17T09:06:50;18.80;47.90
24144;DHT22;12307;50.828;6.080;2022-12-17T09:09:34;18.80;47.90
24144;DHT22;12307;50.828;6.080;2022-12-17T09:12:18;18.80;47.80
24144;DHT22;12307;50.828;6.080;2022-12-17T09:15:03;18.80;47.80
24144;DHT22;12307;50.828;6.080;2022-12-17T09:17:49;18.80;47.70
24144;DHT22;12307;50.828;6.080;2022-12-17T09:20:35;18.80;47.70
24144;DHT22;12307;50.828;6.080;2022-12-17T09:23:19;18.80;47.70
24144;DHT22;12307;50.828;6.080;2022-12-17T09:26:04;18.80;47.60
24144;DHT22;12307;50.828;6.080;2022-12-17T09:28:48;18.80;47.60
24144;DHT22;12307;50.828;6.080;2022-12-17T09:31:33;18.80;47.50
24144;DHT22;12307;50.828;6.080;2022-12-17T09:34:17;18.80;47.50
24144;DHT22;12307;50.828;6.080;2022-12-17T09:37:03;18.80;47.50
24144;DHT22;12307;50.828;6.080;2022-12-17T09:39:47;18.90;47.50
24144;DHT22;12307;50.828;6.080;2022-12-17T09:42:36;18.80;47.50
24144;DHT22;12307;50.828;6.080;2022-12-17T09:45:25;18.90;47.50
24144;DHT22;12307;50.828;6.080;2022-12-17T09:48:14;18.90;47.50
24144;DHT22;12307;50.828;6.080;2022-12-17T09:51:00;18.90;47.40
24144;DHT22;12307;50.828;6.080;2022-12-17T09:53:48;19.00;47.40
24144;DHT22;12307;50.828;6.080;2022-12-17T09:56:33;19.00;47.20
24144;DHT22;12307;50.828;6.080;2022-12-17T09:59:20;19.10;47.20
24144;DHT22;12307;50.828;6.080;2022-12-17T10:02:19;19.20;47.10
24144;DHT22;12307;50.828;6.080;2022-12-17T10:05:06;19.20;47.00
24144;DHT22;12307;50.828;6.080;2022-12-17T10:07:52;19.20;46.90
24144;DHT22;12307;50.828;6.080;2022-12-17T10:10:43;19.20;46.90
24144;DHT22;12307;50.828;6.080;2022-12-17T10:13:28;19.20;46.90
24144;DHT22;12307;50.828;6.080;2022-12-17T10:16:24;19.20;46.80
24144;DHT22;12307;50.828;6.080;2022-12-17T10:19:13;19.20;47.00
24144;DHT22;12307;50.828;6.080;2022-12-17T10:22:06;19.20;47.00
24144;DHT22;12307;50.828;6.080;2022-12-17T10:24:50;19.20;46.90
24144;DHT22;12307;50.828;6.080;2022-12-17T10:27:36;19.20;46.90
24144;DHT22;12307;50.828;6.080;2022-12-17T10:30:20;19.20;46.80
24144;DHT22;12307;50.828;6.080;2022-12-17T10:33:05;19.20;46.90
24144;DHT22;12307;50.828;6.080;2022-12-17T10:35:50;19.30;47.00
24144;DHT22;12307;50.828;6.080;2022-12-17T10:38:35;19.30;46.90
24144;DHT22;12307;50.828;6.080;2022-12-17T10:41:21;19.30;46.90
24144;DHT22;12307;50.828;6.080;2022-12-17T10:44:25;19.40;46.90
24144;DHT22;12307;50.828;6.080;2022-12-17T10:47:11;19.40;47.00
24144;DHT22;12307;50.828;6.080;2022-12-17T10:49:57;19.40;46.80
24144;DHT22;12307;50.828;6.080;2022-12-17T10:52:43;19.50;46.90
24144;DHT22;12307;50.828;6.080;2022-12-17T10:55:29;19.50;46.90
24144;DHT22;12307;50.828;6.080;2022-12-17T10:58:16;19.50;46.70
24144;DHT22;12307;50.828;6.080;2022-12-17T11:01:04;19.50;46.60
24144;DHT22;12307;50.828;6.080;2022-12-17T11:03:51;19.50;46.70
24144;DHT22;12307;50.828;6.080;2022-12-17T11:06:37;19.50;46.70
24144;DHT22;12307;50.828;6.080;2022-12-17T11:09:30;19.50;46.90
24144;DHT22;12307;50.828;6.080;2022-12-17T11:12:16;19.50;46.70
24144;DHT22;12307;50.828;6.080;2022-12-17T11:15:08;19.50;46.80
24144;DHT22;12307;50.828;6.080;2022-12-17T11:17:57;19.50;46.60
24144;DHT22;12307;50.828;6.080;2022-12-17T11:20:46;19.60;46.70
24144;DHT22;12307;50.828;6.080;2022-12-17T11:23:34;19.60;46.40
24144;DHT22;12307;50.828;6.080;2022-12-17T11:26:20;19.80;46.30
24144;DHT22;12307;50.828;6.080;2022-12-17T11:29:06;19.90;45.90
24144;DHT22;12307;50.828;6.080;2022-12-17T11:35:15;20.30;45.30
24144;DHT22;12307;50.828;6.080;2022-12-17T11:38:11;20.40;45.40
24144;DHT22;12307;50.828;6.080;2022-12-17T11:41:03;20.50;45.50
24144;DHT22;12307;50.828;6.080;2022-12-17T11:43:57;20.60;46.50
24144;DHT22;12307;50.828;6.080;2022-12-17T11:46:47;20.70;45.40
24144;DHT22;12307;50.828;6.080;2022-12-17T11:49:39;20.80;45.40
24144;DHT22;12307;50.828;6.080;2022-12-17T11:52:32;20.90;45.00
24144;DHT22;12307;50.828;6.080;2022-12-17T11:55:24;21.00;45.00
24144;DHT22;12307;50.828;6.080;2022-12-17T11:58:14;21.00;44.90
24144;DHT22;12307;50.828;6.080;2022-12-17T12:01:06;21.10;45.30
24144;DHT22;12307;50.828;6.080;2022-12-17T12:04:02;21.20;45.30
24144;DHT22;12307;50.828;6.080;2022-12-17T12:06:58;21.30;45.00
24144;DHT22;12307;50.828;6.080;2022-12-17T12:09:54;21.30;45.70
24144;DHT22;12307;50.828;6.080;2022-12-17T12:12:49;21.30;45.70
24144;DHT22;12307;50.828;6.080;2022-12-17T12:15:59;21.30;45.70
24144;DHT22;12307;50.828;6.080;2022-12-17T12:18:53;21.30;45.30
24144;DHT22;12307;50.828;6.080;2022-12-17T12:21:40;21.30;45.40
24144;DHT22;12307;50.828;6.080;2022-12-17T12:24:48;21.30;45.80
24144;DHT22;12307;50.828;6.080;2022-12-17T12:27:43;21.30;45.80
24144;DHT22;12307;50.828;6.080;2022-12-17T12:30:32;21.30;45.60
24144;DHT22;12307;50.828;6.080;2022-12-17T12:33:25;21.30;45.50
24144;DHT22;12307;50.828;6.080;2022-12-17T12:36:14;21.30;45.90
24144;DHT22;12307;50.828;6.080;2022-12-17T12:39:00;21.20;45.90
24144;DHT22;12307;50.828;6.080;2022-12-17T12:41:51;21.20;45.50
24144;DHT22;12307;50.828;6.080;2022-12-17T12:44:44;21.20;45.20
24144;DHT22;12307;50.828;6.080;2022-12-17T12:47:36;21.10;45.10
24144;DHT22;12307;50.828;6.080;2022-12-17T12:50:28;21.10;44.90
24144;DHT22;12307;50.828;6.080;2022-12-17T12:53:13;21.10;44.90
24144;DHT22;12307;50.828;6.080;2022-12-17T12:55:58;21.10;44.90
24144;DHT22;12307;50.828;6.080;2022-12-17T12:58:43;21.10;45.00
24144;DHT22;12307;50.828;6.080;2022-12-17T13:01:35;21.00;45.00
24144;DHT22;12307;50.828;6.080;2022-12-17T13:04:30;21.00;45.20
24144;DHT22;12307;50.828;6.080;2022-12-17T13:07:21;21.00;45.30
24144;DHT22;12307;50.828;6.080;2022-12-17T13:09:48;20.90;45.40
24144;DHT22;12307;50.828;6.080;2022-12-17T13:12:30;20.90;45.50
24144;DHT22;12307;50.828;6.080;2022-12-17T13:15:18;20.90;45.70
24144;DHT22;12307;50.828;6.080;2022-12-17T13:17:55;20.80;45.90
24144;DHT22;12307;50.828;6.080;2022-12-17T13:20:26;20.70;45.90
24144;DHT22;12307;50.828;6.080;2022-12-17T13:23:03;20.70;46.10
24144;DHT22;12307;50.828;6.080;2022-12-17T13:25:29;20.70;46.10
24144;DHT22;12307;50.828;6.080;2022-12-17T13:27:55;20.60;46.40
24144;DHT22;12307;50.828;6.080;2022-12-17T13:30:31;20.60;46.20
24144;DHT22;12307;50.828;6.080;2022-12-17T13:33:11;20.60;46.20
24144;DHT22;12307;50.828;6.080;2022-12-17T13:35:45;20.50;46.30
24144;DHT22;12307;50.828;6.080;2022-12-17T13:38:19;20.50;46.20
24144;DHT22;12307;50.828;6.080;2022-12-17T13:40:54;20.50;46.30
24144;DHT22;12307;50.828;6.080;2022-12-17T13:43:29;20.50;46.30
24144;DHT22;12307;50.828;6.080;2022-12-17T13:45:56;20.50;46.60
24144;DHT22;12307;50.828;6.080;2022-12-17T13:48:24;20.50;46.70
24144;DHT22;12307;50.828;6.080;2022-12-17T13:50:55;20.50;46.60
24144;DHT22;12307;50.828;6.080;2022-12-17T13:53:21;20.50;46.40
24144;DHT22;12307;50.828;6.080;2022-12-17T13:55:49;20.50;46.50
24144;DHT22;12307;50.828;6.080;2022-12-17T13:58:24;20.40;46.40
24144;DHT22;12307;50.828;6.080;2022-12-17T14:00:51;20.40;46.60
24144;DHT22;12307;50.828;6.080;2022-12-17T14:03:20;20.40;46.70
24144;DHT22;12307;50.828;6.080;2022-12-17T14:05:47;20.40;46.60
24144;DHT22;12307;50.828;6.080;2022-12-17T14:08:16;20.30;46.60
24144;DHT22;12307;50.828;6.080;2022-12-17T14:10:49;20.30;46.60
24144;DHT22;12307;50.828;6.080;2022-12-17T14:13:16;20.30;46.70
24144;DHT22;12307;50.828;6.080;2022-12-17T14:15:44;20.30;46.70
24144;DHT22;12307;50.828;6.080;2022-12-17T14:18:15;20.20;46.80
24144;DHT22;12307;50.828;6.080;2022-12-17T14:20:44;20.20;46.90
24144;DHT22;12307;50.828;6.080;2022-12-17T14:23:13;20.20;46.80
24144;DHT22;12307;50.828;6.080;2022-12-17T14:25:42;20.20;47.20
24144;DHT22;12307;50.828;6.080;2022-12-17T14:28:20;20.10;46.80
24144;DHT22;12307;50.828;6.080;2022-12-17T14:30:47;20.10;46.80
24144;DHT22;12307;50.828;6.080;2022-12-17T14:33:25;20.10;46.80
24144;DHT22;12307;50.828;6.080;2022-12-17T14:35:58;20.00;46.70
24144;DHT22;12307;50.828;6.080;2022-12-17T14:38:24;20.00;47.00
24144;DHT22;12307;50.828;6.080;2022-12-17T14:40:51;20.00;47.10
24144;DHT22;12307;50.828;6.080;2022-12-17T14:43:21;19.90;47.30
24144;DHT22;12307;50.828;6.080;2022-12-17T14:45:51;19.90;47.30
24144;DHT22;12307;50.828;6.080;2022-12-17T14:48:36;19.90;47.30
24144;DHT22;12307;50.828;6.080;2022-12-17T14:51:26;19.90;47.20
24144;DHT22;12307;50.828;6.080;2022-12-17T14:53:52;19.80;47.40
24144;DHT22;12307;50.828;6.080;2022-12-17T14:56:29;19.80;47.50
24144;DHT22;12307;50.828;6.080;2022-12-17T14:58:54;19.80;47.40
24144;DHT22;12307;50.828;6.080;2022-12-17T15:01:20;19.70;47.40
24144;DHT22;12307;50.828;6.080;2022-12-17T15:03:46;19.70;47.50
24144;DHT22;12307;50.828;6.080;2022-12-17T15:06:14;19.70;47.70
24144;DHT22;12307;50.828;6.080;2022-12-17T15:08:44;19.70;48.00
24144;DHT22;12307;50.828;6.080;2022-12-17T15:11:12;19.60;48.10
24144;DHT22;12307;50.828;6.080;2022-12-17T15:13:38;19.60;48.00
24144;DHT22;12307;50.828;6.080;2022-12-17T15:16:04;19.60;47.80
24144;DHT22;12307;50.828;6.080;2022-12-17T15:18:30;19.50;47.70
24144;DHT22;12307;50.828;6.080;2022-12-17T15:20:56;19.50;47.70
24144;DHT22;12307;50.828;6.080;2022-12-17T15:23:22;19.50;47.70
24144;DHT22;12307;50.828;6.080;2022-12-17T15:25:51;19.50;47.80
24144;DHT22;12307;50.828;6.080;2022-12-17T15:28:18;19.50;47.70
24144;DHT22;12307;50.828;6.080;2022-12-17T15:30:45;19.40;47.60
24144;DHT22;12307;50.828;6.080;2022-12-17T15:33:11;19.40;47.60
24144;DHT22;12307;50.828;6.080;2022-12-17T15:35:38;19.40;47.60
24144;DHT22;12307;50.828;6.080;2022-12-17T15:38:05;19.40;47.90
24144;DHT22;12307;50.828;6.080;2022-12-17T15:40:31;19.40;47.70
24144;DHT22;12307;50.828;6.080;2022-12-17T15:42:59;19.40;47.80
24144;DHT22;12307;50.828;6.080;2022-12-17T15:45:38;19.40;47.90
24144;DHT22;12307;50.828;6.080;2022-12-17T15:48:04;19.30;47.90
24144;DHT22;12307;50.828;6.080;2022-12-17T15:50:30;19.30;47.90
24144;DHT22;12307;50.828;6.080;2022-12-17T15:52:56;19.30;47.90
24144;DHT22;12307;50.828;6.080;2022-12-17T15:55:22;19.30;48.00
24144;DHT22;12307;50.828;6.080;2022-12-17T15:57:47;19.20;47.90
24144;DHT22;12307;50.828;6.080;2022-12-17T16:00:15;19.30;48.00
24144;DHT22;12307;50.828;6.080;2022-12-17T16:02:41;19.20;48.10
24144;DHT22;12307;50.828;6.080;2022-12-17T16:05:07;19.20;48.20
24144;DHT22;12307;50.828;6.080;2022-12-17T16:07:33;19.20;48.40
24144;DHT22;12307;50.828;6.080;2022-12-17T16:09:59;19.20;48.40
24144;DHT22;12307;50.828;6.080;2022-12-17T16:12:25;19.10;48.20
24144;DHT22;12307;50.828;6.080;2022-12-17T16:14:50;19.10;48.20
24144;DHT22;12307;50.828;6.080;2022-12-17T16:17:17;19.20;48.20
24144;DHT22;12307;50.828;6.080;2022-12-17T16:19:43;19.10;48.30
24144;DHT22;12307;50.828;6.080;2022-12-17T16:22:09;19.10;48.00
24144;DHT22;12307;50.828;6.080;2022-12-17T16:24:34;19.10;47.80
24144;DHT22;12307;50.828;6.080;2022-12-17T16:27:00;19.10;47.80
24144;DHT22;12307;50.828;6.080;2022-12-17T16:29:26;19.10;47.80
24144;DHT22;12307;50.828;6.080;2022-12-17T16:31:51;19.10;47.70
24144;DHT22;12307;50.828;6.080;2022-12-17T16:34:18;19.10;47.80
24144;DHT22;12307;50.828;6.080;2022-12-17T16:36:44;19.10;48.00
24144;DHT22;12307;50.828;6.080;2022-12-17T16:39:14;19.10;48.10
24144;DHT22;12307;50.828;6.080;2022-12-17T16:41:40;19.10;47.90
24144;DHT22;12307;50.828;6.080;2022-12-17T16:44:05;19.10;47.90
24144;DHT22;12307;50.828;6.080;2022-12-17T16:46:33;19.00;47.80
24144;DHT22;12307;50.828;6.080;2022-12-17T16:49:04;19.00;47.90
24144;DHT22;12307;50.828;6.080;2022-12-17T16:51:31;19.00;47.90
24144;DHT22;12307;50.828;6.080;2022-12-17T16:53:58;19.00;48.10
24144;DHT22;12307;50.828;6.080;2022-12-17T16:56:25;19.00;48.30
24144;DHT22;12307;50.828;6.080;2022-12-17T16:58:52;19.00;48.80
24144;DHT22;12307;50.828;6.080;2022-12-17T17:01:18;19.00;48.40
24144;DHT22;12307;50.828;6.080;2022-12-17T17:03:44;19.00;48.20
24144;DHT22;12307;50.828;6.080;2022-12-17T17:06:10;19.00;48.50